sensor_id;sensor_type;location;lat;lon;timestamp;temperature;humidity
11664;DHT22;72375;59.302;18.204;2024-02-21T00:01:59;3.20;99.90
11664;DHT22;72375;59.302;18.204;2024-02-21T00:04:46;3.20;99.90
11664;DHT22;72375;59.302;18.204;2024-02-21T00:07:31;3.20;99.90
11664;DHT22;72375;59.302;18.204;2024-02-21T00:10:17;3.20;99.90
11664;DHT22;72375;59.302;18.204;2024-02-21T00:13:03;3.20;99.90
11664;DHT22;72375;59.302;18.204;2024-02-21T00:15:48;3.20;99.90
11664;DHT22;72375;59.302;18.204;2024-02-21T00:18:34;3.20;99.90
11664;DHT22;72375;59.302;18.204;2024-02-21T00:21:21;3.20;99.90
11664;DHT22;72375;59.302;18.204;2024-02-21T00:24:07;3.20;99.90
11664;DHT22;72375;59.302;18.204;2024-02-21T00:26:53;3.20;99.90
11664;DHT22;72375;59.302;18.204;2024-02-21T00:29:39;3.20;99.90
11664;DHT22;72375;59.302;18.204;2024-02-21T00:32:25;3.20;99.90
11664;DHT22;72375;59.302;18.204;2024-02-21T00:35:11;3.20;99.90
11664;DHT22;72375;59.302;18.204;2024-02-21T00:37:58;3.20;99.90
11664;DHT22;72375;59.302;18.204;2024-02-21T00:40:43;3.20;99.90
11664;DHT22;72375;59.302;18.204;2024-02-21T00:43:29;3.30;99.90
11664;DHT22;72375;59.302;18.204;2024-02-21T00:46:15;3.20;99.90
11664;DHT22;72375;59.302;18.204;2024-02-21T00:49:00;3.20;99.90
11664;DHT22;72375;59.302;18.204;2024-02-21T00:51:47;3.20;99.90
11664;DHT22;72375;59.302;18.204;2024-02-21T00:54:34;3.20;99.90
11664;DHT22;72375;59.302;18.204;2024-02-21T00:57:20;3.20;99.90
11664;DHT22;72375;59.302;18.204;2024-02-21T01:00:06;3.20;99.90
11664;DHT22;72375;59.302;18.204;2024-02-21T01:02:52;3.20;99.90
11664;DHT22;72375;59.302;18.204;2024-02-21T01:05:38;3.20;99.90
11664;DHT22;72375;59.302;18.204;2024-02-21T01:08:23;3.30;99.90
11664;DHT22;72375;59.302;18.204;2024-02-21T01:11:10;3.30;99.90
11664;DHT22;72375;59.302;18.204;2024-02-21T01:13:55;3.30;99.90
11664;DHT22;72375;59.302;18.204;2024-02-21T01:16:42;3.30;99.90
11664;DHT22;72375;59.302;18.204;2024-02-21T01:19:27;3.30;99.90
11664;DHT22;72375;59.302;18.204;2024-02-21T01:22:13;3.30;99.90
11664;DHT22;72375;59.302;18.204;2024-02-21T01:25:00;3.30;99.90
11664;DHT22;72375;59.302;18.204;2024-02-21T01:27:47;3.30;99.90
11664;DHT22;72375;59.302;18.204;2024-02-21T01:30:32;3.30;99.90
11664;DHT22;72375;59.302;18.204;2024-02-21T01:33:18;3.20;99.90
11664;DHT22;72375;59.302;18.204;2024-02-21T01:36:04;3.30;99.90
11664;DHT22;72375;59.302;18.204;2024-02-21T01:38:51;3.30;99.90
11664;DHT22;72375;59.302;18.204;2024-02-21T01:41:36;3.30;99.90
11664;DHT22;72375;59.302;18.204;2024-02-21T01:44:24;3.30;99.90
11664;DHT22;72375;59.302;18.204;2024-02-21T01:47:10;3.30;99.90
11664;DHT22;72375;59.302;18.204;2024-02-21T01:49:57;3.10;99.90
11664;DHT22;72375;59.302;18.204;2024-02-21T01:52:44;3.20;99.90
11664;DHT22;72375;59.302;18.204;2024-02-21T01:55:32;3.30;99.90
11664;DHT22;72375;59.302;18.204;2024-02-21T01:58:18;3.60;99.90
11664;DHT22;72375;59.302;18.204;2024-02-21T02:01:06;3.30;99.90
11664;DHT22;72375;59.302;18.204;2024-02-21T02:03:52;3.30;99.90
11664;DHT22;72375;59.302;18.204;2024-02-21T02:06:39;3.30;99.90
11664;DHT22;72375;59.302;18.204;2024-02-21T02:09:24;3.40;99.90
11664;DHT22;72375;59.302;18.204;2024-02-21T02:12:10;3.30;99.90
11664;DHT22;72375;59.302;18.204;2024-02-21T02:14:59;3.30;99.90
11664;DHT22;72375;59.302;18.204;2024-02-21T02:17:46;3.30;99.90
11664;DHT22;72375;59.302;18.204;2024-02-21T02:20:32;3.30;99.90
11664;DHT22;72375;59.302;18.204;2024-02-21T02:23:23;3.30;99.90
11664;DHT22;72375;59.302;18.204;2024-02-21T02:26:08;3.30;99.90
11664;DHT22;72375;59.302;18.204;2024-02-21T02:28:54;3.30;99.90
11664;DHT22;72375;59.302;18.204;2024-02-21T02:31:40;3.40;99.90
11664;DHT22;72375;59.302;18.204;2024-02-21T02:34:26;3.40;99.90
11664;DHT22;72375;59.302;18.204;2024-02-21T02:37:11;3.40;99.90
11664;DHT22;72375;59.302;18.204;2024-02-21T02:39:58;3.30;99.90
11664;DHT22;72375;59.302;18.204;2024-02-21T02:42:44;3.40;99.90
11664;DHT22;72375;59.302;18.204;2024-02-21T02:45:30;3.40;99.90
11664;DHT22;72375;59.302;18.204;2024-02-21T02:48:16;3.40;99.90
11664;DHT22;72375;59.302;18.204;2024-02-21T02:51:01;3.40;99.90
11664;DHT22;72375;59.302;18.204;2024-02-21T02:53:47;3.30;99.90
11664;DHT22;72375;59.302;18.204;2024-02-21T02:56:34;3.40;99.90
11664;DHT22;72375;59.302;18.204;2024-02-21T02:59:19;3.50;99.90
11664;DHT22;72375;59.302;18.204;2024-02-21T03:02:05;3.40;99.90
11664;DHT22;72375;59.302;18.204;2024-02-21T03:04:51;3.40;99.90
11664;DHT22;72375;59.302;18.204;2024-02-21T03:07:37;3.70;99.90
11664;DHT22;72375;59.302;18.204;2024-02-21T03:10:23;3.40;99.90
11664;DHT22;72375;59.302;18.204;2024-02-21T03:13:10;3.40;99.90
11664;DHT22;72375;59.302;18.204;2024-02-21T03:15:55;3.40;99.90
11664;DHT22;72375;59.302;18.204;2024-02-21T03:18:41;3.40;99.90
11664;DHT22;72375;59.302;18.204;2024-02-21T03:21:27;3.40;99.90
11664;DHT22;72375;59.302;18.204;2024-02-21T03:24:13;3.40;99.90
11664;DHT22;72375;59.302;18.204;2024-02-21T03:26:58;3.40;99.90
11664;DHT22;72375;59.302;18.204;2024-02-21T03:29:45;3.40;99.90
11664;DHT22;72375;59.302;18.204;2024-02-21T03:32:31;3.50;99.90
11664;DHT22;72375;59.302;18.204;2024-02-21T03:35:16;3.40;99.90
11664;DHT22;72375;59.302;18.204;2024-02-21T03:38:02;3.40;99.90
11664;DHT22;72375;59.302;18.204;2024-02-21T03:40:48;3.40;99.90
11664;DHT22;72375;59.302;18.204;2024-02-21T03:43:34;3.40;99.90
11664;DHT22;72375;59.302;18.204;2024-02-21T03:46:21;3.50;99.90
11664;DHT22;72375;59.302;18.204;2024-02-21T03:49:07;3.40;99.90
11664;DHT22;72375;59.302;18.204;2024-02-21T03:51:53;3.50;99.90
11664;DHT22;72375;59.302;18.204;2024-02-21T03:54:40;3.50;99.90
11664;DHT22;72375;59.302;18.204;2024-02-21T03:57:25;3.40;99.90
11664;DHT22;72375;59.302;18.204;2024-02-21T04:00:11;3.50;99.90
11664;DHT22;72375;59.302;18.204;2024-02-21T04:02:59;3.50;99.90
11664;DHT22;72375;59.302;18.204;2024-02-21T04:05:44;3.50;99.90
11664;DHT22;72375;59.302;18.204;2024-02-21T04:08:30;3.50;99.90
11664;DHT22;72375;59.302;18.204;2024-02-21T04:11:15;3.60;99.90
11664;DHT22;72375;59.302;18.204;2024-02-21T04:14:01;3.50;99.90
11664;DHT22;72375;59.302;18.204;2024-02-21T04:16:47;3.50;99.90
11664;DHT22;72375;59.302;18.204;2024-02-21T04:19:34;3.60;99.90
11664;DHT22;72375;59.302;18.204;2024-02-21T04:22:19;3.50;99.90
11664;DHT22;72375;59.302;18.204;2024-02-21T04:25:06;3.70;99.90
11664;DHT22;72375;59.302;18.204;2024-02-21T04:27:51;3.50;99.90
11664;DHT22;72375;59.302;18.204;2024-02-21T04:30:37;3.70;99.90
11664;DHT22;72375;59.302;18.204;2024-02-21T04:33:23;3.60;99.90
11664;DHT22;72375;59.302;18.204;2024-02-21T04:36:10;3.70;99.90
11664;DHT22;72375;59.302;18.204;2024-02-21T04:38:55;3.60;99.90
11664;DHT22;72375;59.302;18.204;2024-02-21T04:41:41;3.60;99.90
11664;DHT22;72375;59.302;18.204;2024-02-21T04:44:27;3.60;99.90
11664;DHT22;72375;59.302;18.204;2024-02-21T04:47:12;3.60;99.90
11664;DHT22;72375;59.302;18.204;2024-02-21T04:49:58;3.60;99.90
11664;DHT22;72375;59.302;18.204;2024-02-21T04:52:45;3.70;99.90
11664;DHT22;72375;59.302;18.204;2024-02-21T04:55:31;3.60;99.90
11664;DHT22;72375;59.302;18.204;2024-02-21T04:58:17;3.70;99.90
11664;DHT22;72375;59.302;18.204;2024-02-21T05:01:03;3.70;99.90
11664;DHT22;72375;59.302;18.204;2024-02-21T05:03:48;3.70;99.90
11664;DHT22;72375;59.302;18.204;2024-02-21T05:06:37;3.70;99.90
11664;DHT22;72375;59.302;18.204;2024-02-21T05:09:24;3.70;99.90
11664;DHT22;72375;59.302;18.204;2024-02-21T05:12:09;3.60;99.90
11664;DHT22;72375;59.302;18.204;2024-02-21T05:14:55;3.70;99.90
11664;DHT22;72375;59.302;18.204;2024-02-21T05:17:41;3.70;99.90
11664;DHT22;72375;59.302;18.204;2024-02-21T05:20:26;4.00;99.90
11664;DHT22;72375;59.302;18.204;2024-02-21T05:23:12;3.70;99.90
11664;DHT22;72375;59.302;18.204;2024-02-21T05:25:59;3.70;99.90
11664;DHT22;72375;59.302;18.204;2024-02-21T05:28:45;3.80;99.90
11664;DHT22;72375;59.302;18.204;2024-02-21T05:31:54;3.80;99.90
11664;DHT22;72375;59.302;18.204;2024-02-21T05:34:40;3.70;99.90
11664;DHT22;72375;59.302;18.204;2024-02-21T05:37:26;3.80;99.90
11664;DHT22;72375;59.302;18.204;2024-02-21T05:40:12;3.80;99.90
11664;DHT22;72375;59.302;18.204;2024-02-21T05:42:58;3.90;99.90
11664;DHT22;72375;59.302;18.204;2024-02-21T05:45:44;3.80;99.90
11664;DHT22;72375;59.302;18.204;2024-02-21T05:48:30;3.90;99.90
11664;DHT22;72375;59.302;18.204;2024-02-21T05:51:15;3.90;99.90
11664;DHT22;72375;59.302;18.204;2024-02-21T05:54:01;3.80;99.90
11664;DHT22;72375;59.302;18.204;2024-02-21T05:56:47;3.90;99.90
11664;DHT22;72375;59.302;18.204;2024-02-21T05:59:34;3.90;99.90
11664;DHT22;72375;59.302;18.204;2024-02-21T06:02:24;3.90;99.90
11664;DHT22;72375;59.302;18.204;2024-02-21T06:05:09;4.00;99.90
11664;DHT22;72375;59.302;18.204;2024-02-21T06:07:55;4.00;99.90
11664;DHT22;72375;59.302;18.204;2024-02-21T06:10:41;4.00;99.90
11664;DHT22;72375;59.302;18.204;2024-02-21T06:13:27;4.00;99.90
11664;DHT22;72375;59.302;18.204;2024-02-21T06:16:13;4.00;99.90
11664;DHT22;72375;59.302;18.204;2024-02-21T06:18:59;4.00;99.90
11664;DHT22;72375;59.302;18.204;2024-02-21T06:21:45;4.00;99.90
11664;DHT22;72375;59.302;18.204;2024-02-21T06:24:30;4.00;99.90
11664;DHT22;72375;59.302;18.204;2024-02-21T06:27:16;4.10;99.90
11664;DHT22;72375;59.302;18.204;2024-02-21T06:30:02;4.10;99.90
11664;DHT22;72375;59.302;18.204;2024-02-21T06:32:49;4.10;99.90
11664;DHT22;72375;59.302;18.204;2024-02-21T06:35:35;4.10;99.90
11664;DHT22;72375;59.302;18.204;2024-02-21T06:38:21;4.10;99.90
11664;DHT22;72375;59.302;18.204;2024-02-21T06:41:15;4.20;99.90
11664;DHT22;72375;59.302;18.204;2024-02-21T06:44:01;4.10;99.90
11664;DHT22;72375;59.302;18.204;2024-02-21T06:46:47;4.10;99.90
11664;DHT22;72375;59.302;18.204;2024-02-21T06:49:34;4.20;99.90
11664;DHT22;72375;59.302;18.204;2024-02-21T06:52:21;4.30;99.90
11664;DHT22;72375;59.302;18.204;2024-02-21T06:55:08;4.20;99.90
11664;DHT22;72375;59.302;18.204;2024-02-21T06:57:54;4.20;99.90
11664;DHT22;72375;59.302;18.204;2024-02-21T07:00:39;4.30;99.90
11664;DHT22;72375;59.302;18.204;2024-02-21T07:03:25;4.40;99.90
11664;DHT22;72375;59.302;18.204;2024-02-21T07:06:12;4.30;99.90
11664;DHT22;72375;59.302;18.204;2024-02-21T07:08:58;4.30;99.90
11664;DHT22;72375;59.302;18.204;2024-02-21T07:11:43;4.40;99.90
11664;DHT22;72375;59.302;18.204;2024-02-21T07:14:29;4.40;99.90
11664;DHT22;72375;59.302;18.204;2024-02-21T07:17:15;4.60;99.90
11664;DHT22;72375;59.302;18.204;2024-02-21T07:20:01;4.50;99.90
11664;DHT22;72375;59.302;18.204;2024-02-21T07:22:48;4.50;99.90
11664;DHT22;72375;59.302;18.204;2024-02-21T07:25:33;4.40;99.90
11664;DHT22;72375;59.302;18.204;2024-02-21T07:28:19;4.50;99.90
11664;DHT22;72375;59.302;18.204;2024-02-21T07:31:05;4.50;99.90
11664;DHT22;72375;59.302;18.204;2024-02-21T07:33:50;4.60;99.90
11664;DHT22;72375;59.302;18.204;2024-02-21T07:36:36;4.50;99.90
11664;DHT22;72375;59.302;18.204;2024-02-21T07:39:24;4.60;99.90
11664;DHT22;72375;59.302;18.204;2024-02-21T07:42:10;4.50;99.90
11664;DHT22;72375;59.302;18.204;2024-02-21T07:44:55;4.60;99.90
11664;DHT22;72375;59.302;18.204;2024-02-21T07:47:41;4.60;99.90
11664;DHT22;72375;59.302;18.204;2024-02-21T07:50:27;4.70;99.90
11664;DHT22;72375;59.302;18.204;2024-02-21T07:53:12;4.70;99.90
11664;DHT22;72375;59.302;18.204;2024-02-21T07:56:00;4.70;99.90
11664;DHT22;72375;59.302;18.204;2024-02-21T07:58:45;4.70;99.90
11664;DHT22;72375;59.302;18.204;2024-02-21T08:01:31;4.70;99.90
11664;DHT22;72375;59.302;18.204;2024-02-21T08:04:16;4.80;99.90
11664;DHT22;72375;59.302;18.204;2024-02-21T08:07:02;4.80;99.90
11664;DHT22;72375;59.302;18.204;2024-02-21T08:09:48;4.80;99.90
11664;DHT22;72375;59.302;18.204;2024-02-21T08:12:35;4.80;99.90
11664;DHT22;72375;59.302;18.204;2024-02-21T08:15:20;4.90;99.90
11664;DHT22;72375;59.302;18.204;2024-02-21T08:18:09;5.00;99.90
11664;DHT22;72375;59.302;18.204;2024-02-21T08:20:55;4.80;99.90
11664;DHT22;72375;59.302;18.204;2024-02-21T08:23:41;4.90;99.90
11664;DHT22;72375;59.302;18.204;2024-02-21T08:26:26;4.90;99.90
11664;DHT22;72375;59.302;18.204;2024-02-21T08:29:15;4.90;99.90
11664;DHT22;72375;59.302;18.204;2024-02-21T08:32:01;4.90;99.90
11664;DHT22;72375;59.302;18.204;2024-02-21T08:34:46;4.90;99.90
11664;DHT22;72375;59.302;18.204;2024-02-21T08:37:32;4.90;99.90
11664;DHT22;72375;59.302;18.204;2024-02-21T08:40:18;4.90;99.90
11664;DHT22;72375;59.302;18.204;2024-02-21T08:43:05;5.00;99.90
11664;DHT22;72375;59.302;18.204;2024-02-21T08:45:52;5.00;99.90
11664;DHT22;72375;59.302;18.204;2024-02-21T08:48:37;5.00;99.90
11664;DHT22;72375;59.302;18.204;2024-02-21T08:51:23;5.00;99.90
11664;DHT22;72375;59.302;18.204;2024-02-21T08:54:08;5.00;99.90
11664;DHT22;72375;59.302;18.204;2024-02-21T08:56:54;5.10;99.90
11664;DHT22;72375;59.302;18.204;2024-02-21T08:59:40;5.10;99.90
11664;DHT22;72375;59.302;18.204;2024-02-21T09:02:28;5.20;99.90
11664;DHT22;72375;59.302;18.204;2024-02-21T09:05:14;5.20;99.90
11664;DHT22;72375;59.302;18.204;2024-02-21T09:07:59;5.20;99.90
11664;DHT22;72375;59.302;18.204;2024-02-21T09:10:45;5.20;99.90
11664;DHT22;72375;59.302;18.204;2024-02-21T09:13:31;5.20;99.90
11664;DHT22;72375;59.302;18.204;2024-02-21T09:16:16;5.20;99.90
11664;DHT22;72375;59.302;18.204;2024-02-21T09:19:03;5.20;99.90
11664;DHT22;72375;59.302;18.204;2024-02-21T09:21:49;5.20;99.90
11664;DHT22;72375;59.302;18.204;2024-02-21T09:24:35;5.30;99.90
11664;DHT22;72375;59.302;18.204;2024-02-21T09:27:21;5.30;99.90
11664;DHT22;72375;59.302;18.204;2024-02-21T09:30:07;5.30;99.90
11664;DHT22;72375;59.302;18.204;2024-02-21T09:32:53;5.40;99.90
11664;DHT22;72375;59.302;18.204;2024-02-21T09:35:40;5.40;99.90
11664;DHT22;72375;59.302;18.204;2024-02-21T09:38:26;5.50;99.90
11664;DHT22;72375;59.302;18.204;2024-02-21T09:41:15;5.50;99.90
11664;DHT22;72375;59.302;18.204;2024-02-21T09:44:02;5.60;99.90
11664;DHT22;72375;59.302;18.204;2024-02-21T09:46:54;5.60;99.90
11664;DHT22;72375;59.302;18.204;2024-02-21T09:49:41;5.60;99.90
11664;DHT22;72375;59.302;18.204;2024-02-21T09:52:28;5.60;99.90
11664;DHT22;72375;59.302;18.204;2024-02-21T09:55:15;5.70;99.90
11664;DHT22;72375;59.302;18.204;2024-02-21T09:58:02;5.70;99.90
11664;DHT22;72375;59.302;18.204;2024-02-21T10:00:48;5.70;99.90
11664;DHT22;72375;59.302;18.204;2024-02-21T10:03:34;5.70;99.90
11664;DHT22;72375;59.302;18.204;2024-02-21T10:06:20;5.70;99.90
11664;DHT22;72375;59.302;18.204;2024-02-21T10:09:07;5.80;99.90
11664;DHT22;72375;59.302;18.204;2024-02-21T10:11:53;5.80;99.90
11664;DHT22;72375;59.302;18.204;2024-02-21T10:14:38;5.80;99.90
11664;DHT22;72375;59.302;18.204;2024-02-21T10:17:24;5.80;99.90
11664;DHT22;72375;59.302;18.204;2024-02-21T10:20:10;5.90;99.90
11664;DHT22;72375;59.302;18.204;2024-02-21T10:23:04;5.90;99.90
11664;DHT22;72375;59.302;18.204;2024-02-21T10:25:53;5.90;99.90
11664;DHT22;72375;59.302;18.204;2024-02-21T10:28:39;5.90;99.90
11664;DHT22;72375;59.302;18.204;2024-02-21T10:31:27;5.90;99.90
11664;DHT22;72375;59.302;18.204;2024-02-21T10:34:16;5.90;99.90
11664;DHT22;72375;59.302;18.204;2024-02-21T10:37:03;6.00;99.90
11664;DHT22;72375;59.302;18.204;2024-02-21T10:39:49;6.00;99.90
11664;DHT22;72375;59.302;18.204;2024-02-21T10:42:37;6.00;99.90
11664;DHT22;72375;59.302;18.204;2024-02-21T10:45:29;6.10;99.90
11664;DHT22;72375;59.302;18.204;2024-02-21T10:48:15;6.20;99.90
11664;DHT22;72375;59.302;18.204;2024-02-21T10:51:06;6.20;99.90
11664;DHT22;72375;59.302;18.204;2024-02-21T10:54:00;6.20;99.90
11664;DHT22;72375;59.302;18.204;2024-02-21T10:56:48;6.20;99.90
11664;DHT22;72375;59.302;18.204;2024-02-21T10:59:37;6.20;99.90
11664;DHT22;72375;59.302;18.204;2024-02-21T11:02:25;6.20;99.90
11664;DHT22;72375;59.302;18.204;2024-02-21T11:05:13;6.10;99.90
11664;DHT22;72375;59.302;18.204;2024-02-21T11:07:59;6.10;99.90
11664;DHT22;72375;59.302;18.204;2024-02-21T11:10:46;6.10;99.90
11664;DHT22;72375;59.302;18.204;2024-02-21T11:13:32;6.10;99.90
11664;DHT22;72375;59.302;18.204;2024-02-21T11:16:23;6.10;99.90
11664;DHT22;72375;59.302;18.204;2024-02-21T11:19:09;6.20;99.90
11664;DHT22;72375;59.302;18.204;2024-02-21T11:21:56;6.20;99.90
11664;DHT22;72375;59.302;18.204;2024-02-21T11:24:42;6.20;99.90
11664;DHT22;72375;59.302;18.204;2024-02-21T11:27:28;6.20;99.90
11664;DHT22;72375;59.302;18.204;2024-02-21T11:30:26;6.20;99.90
11664;DHT22;72375;59.302;18.204;2024-02-21T11:33:14;6.20;99.90
11664;DHT22;72375;59.302;18.204;2024-02-21T11:35:59;6.20;99.90
11664;DHT22;72375;59.302;18.204;2024-02-21T11:38:45;6.20;99.90
11664;DHT22;72375;59.302;18.204;2024-02-21T11:41:31;6.20;99.90
11664;DHT22;72375;59.302;18.204;2024-02-21T11:44:16;6.10;99.90
11664;DHT22;72375;59.302;18.204;2024-02-21T11:47:02;6.20;99.90
11664;DHT22;72375;59.302;18.204;2024-02-21T11:49:49;6.20;99.90
11664;DHT22;72375;59.302;18.204;2024-02-21T11:52:38;6.20;99.90
11664;DHT22;72375;59.302;18.204;2024-02-21T11:55:24;6.20;99.90
11664;DHT22;72375;59.302;18.204;2024-02-21T11:58:09;6.30;99.90
11664;DHT22;72375;59.302;18.204;2024-02-21T12:00:55;6.30;99.90
11664;DHT22;72375;59.302;18.204;2024-02-21T12:03:42;6.30;99.90
11664;DHT22;72375;59.302;18.204;2024-02-21T12:06:34;6.30;99.90
11664;DHT22;72375;59.302;18.204;2024-02-21T12:09:22;6.30;99.90
11664;DHT22;72375;59.302;18.204;2024-02-21T12:12:08;6.40;99.90
11664;DHT22;72375;59.302;18.204;2024-02-21T12:14:55;6.40;99.90
11664;DHT22;72375;59.302;18.204;2024-02-21T12:17:42;6.40;99.90
11664;DHT22;72375;59.302;18.204;2024-02-21T12:20:27;6.40;99.90
11664;DHT22;72375;59.302;18.204;2024-02-21T12:23:15;6.40;99.90
11664;DHT22;72375;59.302;18.204;2024-02-21T12:26:01;6.50;99.90
11664;DHT22;72375;59.302;18.204;2024-02-21T12:28:46;6.50;99.90
11664;DHT22;72375;59.302;18.204;2024-02-21T12:31:32;6.50;99.90
11664;DHT22;72375;59.302;18.204;2024-02-21T12:34:18;6.60;99.90
11664;DHT22;72375;59.302;18.204;2024-02-21T12:37:04;6.60;99.90
11664;DHT22;72375;59.302;18.204;2024-02-21T12:39:51;6.60;99.90
11664;DHT22;72375;59.302;18.204;2024-02-21T12:42:36;6.70;99.90
11664;DHT22;72375;59.302;18.204;2024-02-21T12:45:22;6.70;99.90
11664;DHT22;72375;59.302;18.204;2024-02-21T12:48:08;6.70;99.90
11664;DHT22;72375;59.302;18.204;2024-02-21T12:51:06;6.70;99.90
11664;DHT22;72375;59.302;18.204;2024-02-21T12:53:52;6.70;99.90
11664;DHT22;72375;59.302;18.204;2024-02-21T12:56:39;6.80;99.90
11664;DHT22;72375;59.302;18.204;2024-02-21T12:59:25;6.80;99.90
11664;DHT22;72375;59.302;18.204;2024-02-21T13:02:12;6.90;99.90
11664;DHT22;72375;59.302;18.204;2024-02-21T13:04:58;6.90;99.90
11664;DHT22;72375;59.302;18.204;2024-02-21T13:07:44;7.00;99.90
11664;DHT22;72375;59.302;18.204;2024-02-21T13:10:30;7.00;99.90
11664;DHT22;72375;59.302;18.204;2024-02-21T13:13:17;7.00;99.90
11664;DHT22;72375;59.302;18.204;2024-02-21T13:16:03;7.00;99.90
11664;DHT22;72375;59.302;18.204;2024-02-21T13:18:49;7.00;99.90
11664;DHT22;72375;59.302;18.204;2024-02-21T13:21:36;7.00;99.90
11664;DHT22;72375;59.302;18.204;2024-02-21T13:24:21;6.90;99.90
11664;DHT22;72375;59.302;18.204;2024-02-21T13:27:07;6.90;99.90
11664;DHT22;72375;59.302;18.204;2024-02-21T13:29:54;6.90;99.90
11664;DHT22;72375;59.302;18.204;2024-02-21T13:32:39;6.90;99.90
11664;DHT22;72375;59.302;18.204;2024-02-21T13:35:25;6.90;99.90
11664;DHT22;72375;59.302;18.204;2024-02-21T13:38:12;6.90;99.90
11664;DHT22;72375;59.302;18.204;2024-02-21T13:40:58;6.90;99.90
11664;DHT22;72375;59.302;18.204;2024-02-21T13:43:44;6.90;99.90
11664;DHT22;72375;59.302;18.204;2024-02-21T13:46:32;6.90;99.90
11664;DHT22;72375;59.302;18.204;2024-02-21T13:49:17;6.90;99.90
11664;DHT22;72375;59.302;18.204;2024-02-21T13:52:03;6.90;99.90
11664;DHT22;72375;59.302;18.204;2024-02-21T13:54:49;6.90;99.90
11664;DHT22;72375;59.302;18.204;2024-02-21T13:57:35;6.90;99.90
11664;DHT22;72375;59.302;18.204;2024-02-21T14:00:21;6.80;99.90
11664;DHT22;72375;59.302;18.204;2024-02-21T14:03:07;6.80;99.90
11664;DHT22;72375;59.302;18.204;2024-02-21T14:05:54;6.80;99.90
11664;DHT22;72375;59.302;18.204;2024-02-21T14:08:39;6.80;99.90
11664;DHT22;72375;59.302;18.204;2024-02-21T14:11:26;6.80;99.90
11664;DHT22;72375;59.302;18.204;2024-02-21T14:14:12;6.80;99.90
11664;DHT22;72375;59.302;18.204;2024-02-21T14:16:59;6.80;99.90
11664;DHT22;72375;59.302;18.204;2024-02-21T14:19:46;6.80;99.90
11664;DHT22;72375;59.302;18.204;2024-02-21T14:22:31;6.80;99.90
11664;DHT22;72375;59.302;18.204;2024-02-21T14:25:17;6.80;99.90
11664;DHT22;72375;59.302;18.204;2024-02-21T14:28:03;6.80;99.90
11664;DHT22;72375;59.302;18.204;2024-02-21T14:30:48;6.70;99.90
11664;DHT22;72375;59.302;18.204;2024-02-21T14:33:37;6.70;99.90
11664;DHT22;72375;59.302;18.204;2024-02-21T14:36:25;6.70;99.90
11664;DHT22;72375;59.302;18.204;2024-02-21T14:39:11;6.70;99.90
11664;DHT22;72375;59.302;18.204;2024-02-21T14:41:57;6.70;99.90
11664;DHT22;72375;59.302;18.204;2024-02-21T14:44:44;6.70;99.90
11664;DHT22;72375;59.302;18.204;2024-02-21T14:47:30;6.70;99.90
11664;DHT22;72375;59.302;18.204;2024-02-21T14:50:16;6.70;99.90
11664;DHT22;72375;59.302;18.204;2024-02-21T14:53:03;6.70;99.90
11664;DHT22;72375;59.302;18.204;2024-02-21T14:55:49;6.60;99.90
11664;DHT22;72375;59.302;18.204;2024-02-21T14:58:34;6.60;99.90
11664;DHT22;72375;59.302;18.204;2024-02-21T15:01:20;6.60;99.90
11664;DHT22;72375;59.302;18.204;2024-02-21T15:04:07;6.60;99.90
11664;DHT22;72375;59.302;18.204;2024-02-21T15:06:53;6.60;99.90
11664;DHT22;72375;59.302;18.204;2024-02-21T15:09:40;6.60;99.90
11664;DHT22;72375;59.302;18.204;2024-02-21T15:12:26;6.60;99.90
11664;DHT22;72375;59.302;18.204;2024-02-21T15:15:12;6.60;99.90
11664;DHT22;72375;59.302;18.204;2024-02-21T15:17:58;6.60;99.90
11664;DHT22;72375;59.302;18.204;2024-02-21T15:20:43;6.60;99.90
11664;DHT22;72375;59.302;18.204;2024-02-21T15:23:29;6.60;99.90
11664;DHT22;72375;59.302;18.204;2024-02-21T15:26:16;6.60;99.90
11664;DHT22;72375;59.302;18.204;2024-02-21T15:29:02;6.60;99.90
11664;DHT22;72375;59.302;18.204;2024-02-21T15:31:49;6.60;99.90
11664;DHT22;72375;59.302;18.204;2024-02-21T15:34:34;6.60;99.90
11664;DHT22;72375;59.302;18.204;2024-02-21T15:37:20;6.60;99.90
11664;DHT22;72375;59.302;18.204;2024-02-21T15:40:07;6.60;99.90
11664;DHT22;72375;59.302;18.204;2024-02-21T15:42:54;6.60;99.90
11664;DHT22;72375;59.302;18.204;2024-02-21T15:45:40;6.60;99.90
11664;DHT22;72375;59.302;18.204;2024-02-21T15:48:26;6.50;99.90
11664;DHT22;72375;59.302;18.204;2024-02-21T15:51:12;6.50;99.90
11664;DHT22;72375;59.302;18.204;2024-02-21T15:53:58;6.50;99.90
11664;DHT22;72375;59.302;18.204;2024-02-21T15:56:44;6.50;99.90
11664;DHT22;72375;59.302;18.204;2024-02-21T15:59:31;6.50;99.90
11664;DHT22;72375;59.302;18.204;2024-02-21T16:02:17;6.50;99.90
11664;DHT22;72375;59.302;18.204;2024-02-21T16:05:04;6.50;99.90
11664;DHT22;72375;59.302;18.204;2024-02-21T16:07:53;6.40;99.90
11664;DHT22;72375;59.302;18.204;2024-02-21T16:10:38;6.40;99.90
11664;DHT22;72375;59.302;18.204;2024-02-21T16:13:24;6.40;99.90
11664;DHT22;72375;59.302;18.204;2024-02-21T16:16:11;6.40;99.90
11664;DHT22;72375;59.302;18.204;2024-02-21T16:18:57;6.40;99.90
11664;DHT22;72375;59.302;18.204;2024-02-21T16:21:43;6.40;99.90
11664;DHT22;72375;59.302;18.204;2024-02-21T16:24:30;6.40;99.90
11664;DHT22;72375;59.302;18.204;2024-02-21T16:27:15;6.40;99.90
11664;DHT22;72375;59.302;18.204;2024-02-21T16:30:01;6.40;99.90
11664;DHT22;72375;59.302;18.204;2024-02-21T16:32:48;6.40;99.90
11664;DHT22;72375;59.302;18.204;2024-02-21T16:35:34;6.40;99.90
11664;DHT22;72375;59.302;18.204;2024-02-21T16:38:21;6.40;99.90
11664;DHT22;72375;59.302;18.204;2024-02-21T16:41:07;6.10;99.90
11664;DHT22;72375;59.302;18.204;2024-02-21T16:43:54;6.40;99.90
11664;DHT22;72375;59.302;18.204;2024-02-21T16:46:40;6.40;99.90
11664;DHT22;72375;59.302;18.204;2024-02-21T16:49:27;6.40;99.90
11664;DHT22;72375;59.302;18.204;2024-02-21T16:52:14;6.40;99.90
11664;DHT22;72375;59.302;18.204;2024-02-21T16:55:00;6.40;99.90
11664;DHT22;72375;59.302;18.204;2024-02-21T16:57:45;6.40;99.90
11664;DHT22;72375;59.302;18.204;2024-02-21T17:00:31;6.40;99.90
11664;DHT22;72375;59.302;18.204;2024-02-21T17:03:17;6.40;99.90
11664;DHT22;72375;59.302;18.204;2024-02-21T17:06:05;6.40;99.90
11664;DHT22;72375;59.302;18.204;2024-02-21T17:08:50;6.40;99.90
11664;DHT22;72375;59.302;18.204;2024-02-21T17:11:37;6.40;99.90
11664;DHT22;72375;59.302;18.204;2024-02-21T17:14:22;6.40;99.90
11664;DHT22;72375;59.302;18.204;2024-02-21T17:17:09;6.40;99.90
11664;DHT22;72375;59.302;18.204;2024-02-21T17:19:55;6.40;99.90
11664;DHT22;72375;59.302;18.204;2024-02-21T17:22:42;6.40;99.90
11664;DHT22;72375;59.302;18.204;2024-02-21T17:25:28;6.40;99.90
11664;DHT22;72375;59.302;18.204;2024-02-21T17:28:13;6.40;99.90
11664;DHT22;72375;59.302;18.204;2024-02-21T17:30:59;6.40;99.90